LFRO 221130Z AUTO 23017KT 9999 OVC010 11/09 Q1028

ElémentsDécodage
LFRO Station météo située sur l'aérodrome de LANNION
221130Z émis le 22 du mois à 11h30 UTC
AUTO Bulletin édité par un automate
23017KT vent du 230°, 17 noeuds
9999 visibilité horizontale supérieure à 10 Km
OVC010 couverture nuageuse totale (8/8) à 1000 pieds
11/09 température 11°C, point de rosée 09°C
 soit une humidité relative de 87%
Q1028 la pression au niveau de la mer (QNH) est de 1028 hPa